sensor_id;sensor_type;location;lat;lon;timestamp;temperature;humidity
20862;DHT22;10591;52.532;13.348;2023-04-30T00:02:11;8.14;68.71
20862;DHT22;10591;52.532;13.348;2023-04-30T00:04:45;8.12;68.58
20862;DHT22;10591;52.532;13.348;2023-04-30T00:07:18;8.09;68.35
20862;DHT22;10591;52.532;13.348;2023-04-30T00:09:49;8.04;68.27
20862;DHT22;10591;52.532;13.348;2023-04-30T00:12:21;8.00;68.28
20862;DHT22;10591;52.532;13.348;2023-04-30T00:14:53;7.98;68.41
20862;DHT22;10591;52.532;13.348;2023-04-30T00:17:25;7.95;68.52
20862;DHT22;10591;52.532;13.348;2023-04-30T00:19:57;7.93;68.40
20862;DHT22;10591;52.532;13.348;2023-04-30T00:22:29;7.88;68.67
20862;DHT22;10591;52.532;13.348;2023-04-30T00:25:04;7.81;69.02
20862;DHT22;10591;52.532;13.348;2023-04-30T00:27:36;7.76;69.01
20862;DHT22;10591;52.532;13.348;2023-04-30T00:30:09;7.73;69.14
20862;DHT22;10591;52.532;13.348;2023-04-30T00:32:41;7.71;69.19
20862;DHT22;10591;52.532;13.348;2023-04-30T00:35:14;7.68;69.16
20862;DHT22;10591;52.532;13.348;2023-04-30T00:37:44;7.66;69.47
20862;DHT22;10591;52.532;13.348;2023-04-30T00:40:16;7.58;69.83
20862;DHT22;10591;52.532;13.348;2023-04-30T00:42:47;7.54;70.17
20862;DHT22;10591;52.532;13.348;2023-04-30T00:45:18;7.41;70.69
20862;DHT22;10591;52.532;13.348;2023-04-30T00:47:52;7.34;71.15
20862;DHT22;10591;52.532;13.348;2023-04-30T00:50:23;7.31;71.43
20862;DHT22;10591;52.532;13.348;2023-04-30T00:52:54;7.20;71.98
20862;DHT22;10591;52.532;13.348;2023-04-30T00:55:26;7.18;72.57
20862;DHT22;10591;52.532;13.348;2023-04-30T00:57:58;7.14;72.83
20862;DHT22;10591;52.532;13.348;2023-04-30T01:00:30;7.14;72.93
20862;DHT22;10591;52.532;13.348;2023-04-30T01:03:03;7.12;72.77
20862;DHT22;10591;52.532;13.348;2023-04-30T01:05:33;7.08;72.99
20862;DHT22;10591;52.532;13.348;2023-04-30T01:08:04;7.06;72.84
20862;DHT22;10591;52.532;13.348;2023-04-30T01:16:14;6.96;73.28
20862;DHT22;10591;52.532;13.348;2023-04-30T01:18:56;6.90;73.47
20862;DHT22;10591;52.532;13.348;2023-04-30T01:21:29;6.78;73.99
20862;DHT22;10591;52.532;13.348;2023-04-30T01:27:06;6.71;74.58
20862;DHT22;10591;52.532;13.348;2023-04-30T01:29:32;6.71;74.76
20862;DHT22;10591;52.532;13.348;2023-04-30T01:32:04;6.69;74.75
20862;DHT22;10591;52.532;13.348;2023-04-30T01:34:34;6.61;75.11
20862;DHT22;10591;52.532;13.348;2023-04-30T01:37:21;6.65;74.97
20862;DHT22;10591;52.532;13.348;2023-04-30T01:40:05;6.64;75.07
20862;DHT22;10591;52.532;13.348;2023-04-30T01:42:36;6.59;75.24
20862;DHT22;10591;52.532;13.348;2023-04-30T01:45:22;6.60;75.36
20862;DHT22;10591;52.532;13.348;2023-04-30T01:48:24;6.50;75.64
20862;DHT22;10591;52.532;13.348;2023-04-30T01:50:57;6.45;75.91
20862;DHT22;10591;52.532;13.348;2023-04-30T01:53:31;6.46;76.01
20862;DHT22;10591;52.532;13.348;2023-04-30T01:56:05;6.28;76.89
20862;DHT22;10591;52.532;13.348;2023-04-30T01:58:38;6.32;77.00
20862;DHT22;10591;52.532;13.348;2023-04-30T02:01:27;6.20;77.44
20862;DHT22;10591;52.532;13.348;2023-04-30T02:03:58;6.28;77.42
20862;DHT22;10591;52.532;13.348;2023-04-30T02:06:29;6.33;77.13
20862;DHT22;10591;52.532;13.348;2023-04-30T02:09:02;6.38;76.84
20862;DHT22;10591;52.532;13.348;2023-04-30T02:11:34;6.35;76.81
20862;DHT22;10591;52.532;13.348;2023-04-30T02:14:05;6.31;76.85
20862;DHT22;10591;52.532;13.348;2023-04-30T02:16:36;6.25;77.09
20862;DHT22;10591;52.532;13.348;2023-04-30T02:19:07;6.22;77.47
20862;DHT22;10591;52.532;13.348;2023-04-30T02:21:37;6.20;77.61
20862;DHT22;10591;52.532;13.348;2023-04-30T02:24:08;6.11;77.82
20862;DHT22;10591;52.532;13.348;2023-04-30T02:26:42;6.04;78.27
20862;DHT22;10591;52.532;13.348;2023-04-30T02:29:13;6.08;78.27
20862;DHT22;10591;52.532;13.348;2023-04-30T02:31:45;6.11;78.26
20862;DHT22;10591;52.532;13.348;2023-04-30T02:34:16;6.02;78.60
20862;DHT22;10591;52.532;13.348;2023-04-30T02:36:47;5.97;78.74
20862;DHT22;10591;52.532;13.348;2023-04-30T02:39:17;5.98;78.64
20862;DHT22;10591;52.532;13.348;2023-04-30T02:41:48;5.95;79.10
20862;DHT22;10591;52.532;13.348;2023-04-30T02:44:18;5.93;78.75
20862;DHT22;10591;52.532;13.348;2023-04-30T02:46:55;5.86;79.10
20862;DHT22;10591;52.532;13.348;2023-04-30T02:49:21;5.87;79.16
20862;DHT22;10591;52.532;13.348;2023-04-30T02:51:55;5.80;79.21
20862;DHT22;10591;52.532;13.348;2023-04-30T02:54:26;5.76;79.44
20862;DHT22;10591;52.532;13.348;2023-04-30T02:56:58;5.64;79.54
20862;DHT22;10591;52.532;13.348;2023-04-30T02:59:28;5.60;79.77
20862;DHT22;10591;52.532;13.348;2023-04-30T03:01:59;5.62;79.89
20862;DHT22;10591;52.532;13.348;2023-04-30T03:04:30;5.52;79.99
20862;DHT22;10591;52.532;13.348;2023-04-30T03:07:00;5.44;80.41
20862;DHT22;10591;52.532;13.348;2023-04-30T03:09:32;5.46;80.48
20862;DHT22;10591;52.532;13.348;2023-04-30T03:12:03;5.34;80.58
20862;DHT22;10591;52.532;13.348;2023-04-30T03:14:34;5.43;80.31
20862;DHT22;10591;52.532;13.348;2023-04-30T03:17:05;5.26;80.89
20862;DHT22;10591;52.532;13.348;2023-04-30T03:19:37;5.28;80.92
20862;DHT22;10591;52.532;13.348;2023-04-30T03:22:09;5.26;81.03
20862;DHT22;10591;52.532;13.348;2023-04-30T03:24:41;5.28;80.75
20862;DHT22;10591;52.532;13.348;2023-04-30T03:27:11;5.25;81.02
20862;DHT22;10591;52.532;13.348;2023-04-30T03:29:42;5.38;80.98
20862;DHT22;10591;52.532;13.348;2023-04-30T03:32:13;5.18;80.87
20862;DHT22;10591;52.532;13.348;2023-04-30T03:34:44;5.16;81.17
20862;DHT22;10591;52.532;13.348;2023-04-30T03:37:15;5.14;80.95
20862;DHT22;10591;52.532;13.348;2023-04-30T03:39:46;5.06;81.36
20862;DHT22;10591;52.532;13.348;2023-04-30T03:42:18;5.20;81.30
20862;DHT22;10591;52.532;13.348;2023-04-30T03:44:48;5.02;81.61
20862;DHT22;10591;52.532;13.348;2023-04-30T03:47:19;5.12;81.66
20862;DHT22;10591;52.532;13.348;2023-04-30T03:49:49;4.95;81.71
20862;DHT22;10591;52.532;13.348;2023-04-30T03:52:22;5.00;81.82
20862;DHT22;10591;52.532;13.348;2023-04-30T03:54:53;4.91;81.84
20862;DHT22;10591;52.532;13.348;2023-04-30T03:57:23;4.96;81.81
20862;DHT22;10591;52.532;13.348;2023-04-30T03:59:54;5.04;81.73
20862;DHT22;10591;52.532;13.348;2023-04-30T04:02:25;4.92;81.75
20862;DHT22;10591;52.532;13.348;2023-04-30T04:04:56;4.85;81.99
20862;DHT22;10591;52.532;13.348;2023-04-30T04:07:26;5.02;81.87
20862;DHT22;10591;52.532;13.348;2023-04-30T04:09:58;4.92;81.82
20862;DHT22;10591;52.532;13.348;2023-04-30T04:12:29;4.96;81.55
20862;DHT22;10591;52.532;13.348;2023-04-30T04:15:00;4.92;81.92
20862;DHT22;10591;52.532;13.348;2023-04-30T04:17:32;4.97;81.81
20862;DHT22;10591;52.532;13.348;2023-04-30T04:20:03;5.02;81.37
20862;DHT22;10591;52.532;13.348;2023-04-30T04:22:35;4.96;81.48
20862;DHT22;10591;52.532;13.348;2023-04-30T04:25:06;5.00;81.44
20862;DHT22;10591;52.532;13.348;2023-04-30T04:27:37;5.02;81.16
20862;DHT22;10591;52.532;13.348;2023-04-30T04:30:07;5.06;80.98
20862;DHT22;10591;52.532;13.348;2023-04-30T04:32:38;4.97;81.23
20862;DHT22;10591;52.532;13.348;2023-04-30T04:35:11;5.18;80.77
20862;DHT22;10591;52.532;13.348;2023-04-30T04:37:42;5.24;80.47
20862;DHT22;10591;52.532;13.348;2023-04-30T04:40:13;5.21;80.40
20862;DHT22;10591;52.532;13.348;2023-04-30T04:42:43;5.22;80.34
20862;DHT22;10591;52.532;13.348;2023-04-30T04:45:14;5.18;80.26
20862;DHT22;10591;52.532;13.348;2023-04-30T04:47:47;5.24;79.83
20862;DHT22;10591;52.532;13.348;2023-04-30T04:50:17;5.45;79.47
20862;DHT22;10591;52.532;13.348;2023-04-30T04:52:48;5.30;79.89
20862;DHT22;10591;52.532;13.348;2023-04-30T04:55:19;5.35;79.86
20862;DHT22;10591;52.532;13.348;2023-04-30T04:57:49;5.45;79.26
20862;DHT22;10591;52.532;13.348;2023-04-30T05:00:21;5.60;78.97
20862;DHT22;10591;52.532;13.348;2023-04-30T05:02:52;6.68;76.33
20862;DHT22;10591;52.532;13.348;2023-04-30T05:05:23;9.07;69.42
20862;DHT22;10591;52.532;13.348;2023-04-30T05:07:53;11.00;62.29
20862;DHT22;10591;52.532;13.348;2023-04-30T05:10:24;12.30;58.85
20862;DHT22;10591;52.532;13.348;2023-04-30T05:12:55;12.08;57.10
20862;DHT22;10591;52.532;13.348;2023-04-30T05:15:25;13.07;54.57
20862;DHT22;10591;52.532;13.348;2023-04-30T05:17:56;13.78;52.61
20862;DHT22;10591;52.532;13.348;2023-04-30T05:20:26;14.90;49.36
20862;DHT22;10591;52.532;13.348;2023-04-30T05:22:57;15.28;48.12
20862;DHT22;10591;52.532;13.348;2023-04-30T05:25:28;13.92;51.33
20862;DHT22;10591;52.532;13.348;2023-04-30T05:27:59;13.47;53.02
20862;DHT22;10591;52.532;13.348;2023-04-30T05:30:32;13.42;51.98
20862;DHT22;10591;52.532;13.348;2023-04-30T05:33:04;13.50;52.36
20862;DHT22;10591;52.532;13.348;2023-04-30T05:35:35;14.55;50.58
20862;DHT22;10591;52.532;13.348;2023-04-30T05:38:05;15.78;46.92
20862;DHT22;10591;52.532;13.348;2023-04-30T05:40:36;15.97;45.72
20862;DHT22;10591;52.532;13.348;2023-04-30T05:43:07;14.66;48.61
20862;DHT22;10591;52.532;13.348;2023-04-30T05:45:43;16.81;45.55
20862;DHT22;10591;52.532;13.348;2023-04-30T05:48:09;17.14;43.84
20862;DHT22;10591;52.532;13.348;2023-04-30T05:50:40;15.99;45.86
20862;DHT22;10591;52.532;13.348;2023-04-30T05:53:13;17.00;43.69
20862;DHT22;10591;52.532;13.348;2023-04-30T05:55:43;15.98;45.61
20862;DHT22;10591;52.532;13.348;2023-04-30T05:58:14;15.26;46.47
20862;DHT22;10591;52.532;13.348;2023-04-30T06:00:47;15.46;47.39
20862;DHT22;10591;52.532;13.348;2023-04-30T06:03:19;16.18;46.01
20862;DHT22;10591;52.532;13.348;2023-04-30T06:05:50;16.57;44.64
20862;DHT22;10591;52.532;13.348;2023-04-30T06:08:20;15.73;45.67
20862;DHT22;10591;52.532;13.348;2023-04-30T06:10:51;17.07;42.95
20862;DHT22;10591;52.532;13.348;2023-04-30T06:13:22;17.26;42.91
20862;DHT22;10591;52.532;13.348;2023-04-30T06:15:52;16.52;43.74
20862;DHT22;10591;52.532;13.348;2023-04-30T06:18:23;16.47;43.80
20862;DHT22;10591;52.532;13.348;2023-04-30T06:20:56;16.48;43.34
20862;DHT22;10591;52.532;13.348;2023-04-30T06:23:26;16.42;43.34
20862;DHT22;10591;52.532;13.348;2023-04-30T06:25:57;18.07;41.36
20862;DHT22;10591;52.532;13.348;2023-04-30T06:28:28;16.99;42.16
20862;DHT22;10591;52.532;13.348;2023-04-30T06:30:58;15.92;44.18
20862;DHT22;10591;52.532;13.348;2023-04-30T06:33:29;11.99;52.14
20862;DHT22;10591;52.532;13.348;2023-04-30T06:35:59;10.31;57.66
20862;DHT22;10591;52.532;13.348;2023-04-30T06:38:30;9.36;61.14
20862;DHT22;10591;52.532;13.348;2023-04-30T06:41:01;9.12;62.88
20862;DHT22;10591;52.532;13.348;2023-04-30T06:43:31;8.36;64.78
20862;DHT22;10591;52.532;13.348;2023-04-30T06:46:02;7.97;65.73
20862;DHT22;10591;52.532;13.348;2023-04-30T06:48:33;8.04;66.40
20862;DHT22;10591;52.532;13.348;2023-04-30T06:51:04;8.02;66.78
20862;DHT22;10591;52.532;13.348;2023-04-30T06:53:37;8.33;65.77
20862;DHT22;10591;52.532;13.348;2023-04-30T06:56:07;8.45;65.38
20862;DHT22;10591;52.532;13.348;2023-04-30T06:58:38;8.24;65.75
20862;DHT22;10591;52.532;13.348;2023-04-30T07:01:11;8.36;65.50
20862;DHT22;10591;52.532;13.348;2023-04-30T07:03:42;8.24;65.81
20862;DHT22;10591;52.532;13.348;2023-04-30T07:06:13;8.00;65.71
20862;DHT22;10591;52.532;13.348;2023-04-30T07:08:44;8.05;66.32
20862;DHT22;10591;52.532;13.348;2023-04-30T07:11:14;8.08;65.91
20862;DHT22;10591;52.532;13.348;2023-04-30T07:13:45;8.28;65.15
20862;DHT22;10591;52.532;13.348;2023-04-30T07:16:16;8.30;64.41
20862;DHT22;10591;52.532;13.348;2023-04-30T07:18:46;8.08;64.79
20862;DHT22;10591;52.532;13.348;2023-04-30T07:21:17;8.10;64.96
20862;DHT22;10591;52.532;13.348;2023-04-30T07:23:48;7.98;64.19
20862;DHT22;10591;52.532;13.348;2023-04-30T07:26:20;8.11;64.82
20862;DHT22;10591;52.532;13.348;2023-04-30T07:28:52;8.30;64.36
20862;DHT22;10591;52.532;13.348;2023-04-30T07:31:23;8.01;63.45
20862;DHT22;10591;52.532;13.348;2023-04-30T07:33:54;8.36;64.14
20862;DHT22;10591;52.532;13.348;2023-04-30T07:36:25;8.34;63.42
20862;DHT22;10591;52.532;13.348;2023-04-30T07:38:57;8.40;64.51
20862;DHT22;10591;52.532;13.348;2023-04-30T07:41:27;8.16;65.33
20862;DHT22;10591;52.532;13.348;2023-04-30T07:43:59;8.24;64.60
20862;DHT22;10591;52.532;13.348;2023-04-30T07:46:30;8.42;64.13
20862;DHT22;10591;52.532;13.348;2023-04-30T07:49:01;8.58;63.40
20862;DHT22;10591;52.532;13.348;2023-04-30T07:51:32;8.78;61.92
20862;DHT22;10591;52.532;13.348;2023-04-30T07:54:03;8.73;61.26
20862;DHT22;10591;52.532;13.348;2023-04-30T07:56:35;8.64;60.63
20862;DHT22;10591;52.532;13.348;2023-04-30T07:59:07;8.82;61.06
20862;DHT22;10591;52.532;13.348;2023-04-30T08:01:37;8.91;59.12
20862;DHT22;10591;52.532;13.348;2023-04-30T08:04:08;8.88;59.41
20862;DHT22;10591;52.532;13.348;2023-04-30T08:06:43;8.68;60.37
20862;DHT22;10591;52.532;13.348;2023-04-30T08:09:14;8.73;60.75
20862;DHT22;10591;52.532;13.348;2023-04-30T08:11:44;8.54;60.72
20862;DHT22;10591;52.532;13.348;2023-04-30T08:14:15;8.72;59.64
20862;DHT22;10591;52.532;13.348;2023-04-30T08:16:47;8.60;59.53
20862;DHT22;10591;52.532;13.348;2023-04-30T08:19:19;8.59;59.53
20862;DHT22;10591;52.532;13.348;2023-04-30T08:21:49;8.80;58.32
20862;DHT22;10591;52.532;13.348;2023-04-30T08:24:20;8.74;58.49
20862;DHT22;10591;52.532;13.348;2023-04-30T08:26:50;8.78;58.04
20862;DHT22;10591;52.532;13.348;2023-04-30T08:29:22;8.79;57.83
20862;DHT22;10591;52.532;13.348;2023-04-30T08:31:53;8.74;58.63
20862;DHT22;10591;52.532;13.348;2023-04-30T08:34:24;8.88;57.58
20862;DHT22;10591;52.532;13.348;2023-04-30T08:36:54;8.92;56.72
20862;DHT22;10591;52.532;13.348;2023-04-30T08:39:25;9.13;56.45
20862;DHT22;10591;52.532;13.348;2023-04-30T08:41:57;8.96;56.55
20862;DHT22;10591;52.532;13.348;2023-04-30T08:44:29;9.02;56.43
20862;DHT22;10591;52.532;13.348;2023-04-30T08:47:02;9.00;56.08
20862;DHT22;10591;52.532;13.348;2023-04-30T08:49:34;9.26;56.50
20862;DHT22;10591;52.532;13.348;2023-04-30T08:52:06;9.23;56.50
20862;DHT22;10591;52.532;13.348;2023-04-30T08:54:37;9.42;55.06
20862;DHT22;10591;52.532;13.348;2023-04-30T08:57:09;9.51;54.26
20862;DHT22;10591;52.532;13.348;2023-04-30T08:59:45;9.71;52.07
20862;DHT22;10591;52.532;13.348;2023-04-30T09:02:16;9.38;52.90
20862;DHT22;10591;52.532;13.348;2023-04-30T09:04:48;9.53;52.83
20862;DHT22;10591;52.532;13.348;2023-04-30T09:07:22;9.68;51.13
20862;DHT22;10591;52.532;13.348;2023-04-30T09:09:54;9.76;51.38
20862;DHT22;10591;52.532;13.348;2023-04-30T09:12:29;9.88;50.67
20862;DHT22;10591;52.532;13.348;2023-04-30T09:15:08;9.76;49.82
20862;DHT22;10591;52.532;13.348;2023-04-30T09:17:34;9.72;49.73
20862;DHT22;10591;52.532;13.348;2023-04-30T09:20:07;10.00;50.23
20862;DHT22;10591;52.532;13.348;2023-04-30T09:22:40;9.92;48.89
20862;DHT22;10591;52.532;13.348;2023-04-30T09:25:11;9.94;48.87
20862;DHT22;10591;52.532;13.348;2023-04-30T09:27:44;10.00;47.95
20862;DHT22;10591;52.532;13.348;2023-04-30T09:30:29;10.20;47.76
20862;DHT22;10591;52.532;13.348;2023-04-30T09:33:02;10.10;47.59
20862;DHT22;10591;52.532;13.348;2023-04-30T09:35:36;10.32;48.30
20862;DHT22;10591;52.532;13.348;2023-04-30T09:38:26;10.28;46.24
20862;DHT22;10591;52.532;13.348;2023-04-30T09:40:59;10.30;45.99
20862;DHT22;10591;52.532;13.348;2023-04-30T09:43:32;10.27;46.08
20862;DHT22;10591;52.532;13.348;2023-04-30T09:46:08;10.30;46.21
20862;DHT22;10591;52.532;13.348;2023-04-30T09:48:40;10.36;46.37
20862;DHT22;10591;52.532;13.348;2023-04-30T09:51:10;10.56;46.18
20862;DHT22;10591;52.532;13.348;2023-04-30T09:53:44;10.58;46.17
20862;DHT22;10591;52.532;13.348;2023-04-30T09:56:19;10.62;45.11
20862;DHT22;10591;52.532;13.348;2023-04-30T09:58:53;10.74;45.88
20862;DHT22;10591;52.532;13.348;2023-04-30T10:01:27;10.83;45.43
20862;DHT22;10591;52.532;13.348;2023-04-30T10:03:58;10.90;45.56
20862;DHT22;10591;52.532;13.348;2023-04-30T10:06:30;10.91;45.91
20862;DHT22;10591;52.532;13.348;2023-04-30T10:11:56;11.16;45.09
20862;DHT22;10591;52.532;13.348;2023-04-30T10:14:28;11.18;44.32
20862;DHT22;10591;52.532;13.348;2023-04-30T10:17:10;10.94;44.96
20862;DHT22;10591;52.532;13.348;2023-04-30T10:19:38;11.06;45.01
20862;DHT22;10591;52.532;13.348;2023-04-30T10:22:11;11.20;44.58
20862;DHT22;10591;52.532;13.348;2023-04-30T10:24:45;11.44;45.12
20862;DHT22;10591;52.532;13.348;2023-04-30T10:27:18;11.39;44.80
20862;DHT22;10591;52.532;13.348;2023-04-30T10:29:50;11.64;44.38
20862;DHT22;10591;52.532;13.348;2023-04-30T10:32:23;11.32;44.47
20862;DHT22;10591;52.532;13.348;2023-04-30T10:38:04;11.39;43.84
20862;DHT22;10591;52.532;13.348;2023-04-30T10:40:35;11.02;44.91
20862;DHT22;10591;52.532;13.348;2023-04-30T10:43:06;11.25;45.13
20862;DHT22;10591;52.532;13.348;2023-04-30T10:45:41;11.48;44.94
20862;DHT22;10591;52.532;13.348;2023-04-30T10:48:17;11.66;43.85
20862;DHT22;10591;52.532;13.348;2023-04-30T10:50:57;11.76;43.51
20862;DHT22;10591;52.532;13.348;2023-04-30T10:53:31;11.67;42.92
20862;DHT22;10591;52.532;13.348;2023-04-30T10:56:04;11.72;42.83
20862;DHT22;10591;52.532;13.348;2023-04-30T10:58:39;11.42;44.13
20862;DHT22;10591;52.532;13.348;2023-04-30T11:01:14;11.72;43.66
20862;DHT22;10591;52.532;13.348;2023-04-30T11:07:01;11.62;42.17
20862;DHT22;10591;52.532;13.348;2023-04-30T11:12:11;11.31;42.55
20862;DHT22;10591;52.532;13.348;2023-04-30T11:14:44;11.70;41.63
20862;DHT22;10591;52.532;13.348;2023-04-30T11:17:22;12.04;42.02
20862;DHT22;10591;52.532;13.348;2023-04-30T11:19:54;12.43;42.04
20862;DHT22;10591;52.532;13.348;2023-04-30T11:22:27;12.00;42.38
20862;DHT22;10591;52.532;13.348;2023-04-30T11:25:04;12.20;40.10
20862;DHT22;10591;52.532;13.348;2023-04-30T11:27:41;12.14;42.33
20862;DHT22;10591;52.532;13.348;2023-04-30T11:30:15;11.94;42.44
20862;DHT22;10591;52.532;13.348;2023-04-30T11:32:47;12.40;41.80
20862;DHT22;10591;52.532;13.348;2023-04-30T11:35:18;12.24;42.69
20862;DHT22;10591;52.532;13.348;2023-04-30T11:37:50;12.12;42.58
20862;DHT22;10591;52.532;13.348;2023-04-30T11:40:22;12.44;42.59
20862;DHT22;10591;52.532;13.348;2023-04-30T11:42:55;12.25;42.47
20862;DHT22;10591;52.532;13.348;2023-04-30T11:45:28;11.92;41.20
20862;DHT22;10591;52.532;13.348;2023-04-30T11:48:00;11.82;42.07
20862;DHT22;10591;52.532;13.348;2023-04-30T11:50:32;12.27;41.27
20862;DHT22;10591;52.532;13.348;2023-04-30T11:53:03;12.31;39.29
20862;DHT22;10591;52.532;13.348;2023-04-30T11:55:34;12.26;39.55
20862;DHT22;10591;52.532;13.348;2023-04-30T11:58:08;12.43;39.96
20862;DHT22;10591;52.532;13.348;2023-04-30T12:00:39;12.72;41.23
20862;DHT22;10591;52.532;13.348;2023-04-30T12:03:13;12.36;39.36
20862;DHT22;10591;52.532;13.348;2023-04-30T12:05:46;12.58;39.98
20862;DHT22;10591;52.532;13.348;2023-04-30T12:08:18;12.55;40.23
20862;DHT22;10591;52.532;13.348;2023-04-30T12:10:49;12.84;40.72
20862;DHT22;10591;52.532;13.348;2023-04-30T12:13:19;13.06;41.20
20862;DHT22;10591;52.532;13.348;2023-04-30T12:15:57;12.93;40.76
20862;DHT22;10591;52.532;13.348;2023-04-30T12:18:29;13.04;40.61
20862;DHT22;10591;52.532;13.348;2023-04-30T12:21:01;13.03;40.09
20862;DHT22;10591;52.532;13.348;2023-04-30T12:23:32;12.98;39.86
20862;DHT22;10591;52.532;13.348;2023-04-30T12:26:04;12.91;38.83
20862;DHT22;10591;52.532;13.348;2023-04-30T12:28:36;13.01;37.72
20862;DHT22;10591;52.532;13.348;2023-04-30T12:31:08;13.05;36.36
20862;DHT22;10591;52.532;13.348;2023-04-30T12:33:39;12.78;38.32
20862;DHT22;10591;52.532;13.348;2023-04-30T12:36:10;13.07;37.60
20862;DHT22;10591;52.532;13.348;2023-04-30T12:38:43;13.35;39.80
20862;DHT22;10591;52.532;13.348;2023-04-30T12:41:14;13.18;40.99
20862;DHT22;10591;52.532;13.348;2023-04-30T12:43:47;13.41;41.01
20862;DHT22;10591;52.532;13.348;2023-04-30T12:46:25;13.53;39.49
20862;DHT22;10591;52.532;13.348;2023-04-30T12:48:58;13.46;40.33
20862;DHT22;10591;52.532;13.348;2023-04-30T12:51:31;13.38;40.32
20862;DHT22;10591;52.532;13.348;2023-04-30T12:54:01;13.36;40.84
20862;DHT22;10591;52.532;13.348;2023-04-30T12:56:32;13.17;41.02
20862;DHT22;10591;52.532;13.348;2023-04-30T12:59:13;13.40;40.85
20862;DHT22;10591;52.532;13.348;2023-04-30T13:01:42;13.40;40.39
20862;DHT22;10591;52.532;13.348;2023-04-30T13:04:08;13.22;41.15
20862;DHT22;10591;52.532;13.348;2023-04-30T13:06:39;13.47;41.11
20862;DHT22;10591;52.532;13.348;2023-04-30T13:09:10;13.78;41.02
20862;DHT22;10591;52.532;13.348;2023-04-30T13:11:41;13.96;40.55
20862;DHT22;10591;52.532;13.348;2023-04-30T13:14:12;14.07;39.77
20862;DHT22;10591;52.532;13.348;2023-04-30T13:16:43;13.80;39.58
20862;DHT22;10591;52.532;13.348;2023-04-30T13:19:14;13.55;39.82
20862;DHT22;10591;52.532;13.348;2023-04-30T13:21:44;14.00;40.59
20862;DHT22;10591;52.532;13.348;2023-04-30T13:24:16;13.94;40.51
20862;DHT22;10591;52.532;13.348;2023-04-30T13:26:47;14.00;39.87
20862;DHT22;10591;52.532;13.348;2023-04-30T13:29:18;13.84;40.28
20862;DHT22;10591;52.532;13.348;2023-04-30T13:31:53;14.07;40.40
20862;DHT22;10591;52.532;13.348;2023-04-30T13:34:23;14.14;39.91
20862;DHT22;10591;52.532;13.348;2023-04-30T13:36:54;14.28;40.42
20862;DHT22;10591;52.532;13.348;2023-04-30T13:39:25;14.20;40.90
20862;DHT22;10591;52.532;13.348;2023-04-30T13:41:55;14.04;41.18
20862;DHT22;10591;52.532;13.348;2023-04-30T13:44:28;14.18;42.37
20862;DHT22;10591;52.532;13.348;2023-04-30T13:47:00;14.07;41.90
20862;DHT22;10591;52.532;13.348;2023-04-30T13:49:31;13.84;41.61
20862;DHT22;10591;52.532;13.348;2023-04-30T13:52:03;14.09;41.77
20862;DHT22;10591;52.532;13.348;2023-04-30T13:54:34;14.06;41.44
20862;DHT22;10591;52.532;13.348;2023-04-30T13:57:06;13.98;41.37
20862;DHT22;10591;52.532;13.348;2023-04-30T13:59:36;14.03;41.60
20862;DHT22;10591;52.532;13.348;2023-04-30T14:02:07;14.43;41.15
20862;DHT22;10591;52.532;13.348;2023-04-30T14:04:40;14.26;41.07
20862;DHT22;10591;52.532;13.348;2023-04-30T14:07:11;14.26;41.27
20862;DHT22;10591;52.532;13.348;2023-04-30T14:09:42;14.38;40.23
20862;DHT22;10591;52.532;13.348;2023-04-30T14:12:13;14.06;40.79
20862;DHT22;10591;52.532;13.348;2023-04-30T14:14:44;14.18;40.15
20862;DHT22;10591;52.532;13.348;2023-04-30T14:17:14;14.28;40.62
20862;DHT22;10591;52.532;13.348;2023-04-30T14:19:45;14.44;40.44
20862;DHT22;10591;52.532;13.348;2023-04-30T14:22:15;14.73;40.76
20862;DHT22;10591;52.532;13.348;2023-04-30T14:24:46;14.52;40.84
20862;DHT22;10591;52.532;13.348;2023-04-30T14:27:17;14.30;41.11
20862;DHT22;10591;52.532;13.348;2023-04-30T14:29:47;14.38;41.28
20862;DHT22;10591;52.532;13.348;2023-04-30T14:32:18;14.40;41.38
20862;DHT22;10591;52.532;13.348;2023-04-30T14:34:51;14.52;41.23
20862;DHT22;10591;52.532;13.348;2023-04-30T14:37:21;15.01;42.30
20862;DHT22;10591;52.532;13.348;2023-04-30T14:39:54;15.06;42.33
20862;DHT22;10591;52.532;13.348;2023-04-30T14:42:25;14.83;40.94
20862;DHT22;10591;52.532;13.348;2023-04-30T14:44:57;14.52;40.48
20862;DHT22;10591;52.532;13.348;2023-04-30T14:47:28;14.69;40.17
20862;DHT22;10591;52.532;13.348;2023-04-30T14:50:01;14.66;40.39
20862;DHT22;10591;52.532;13.348;2023-04-30T14:52:33;14.48;40.97
20862;DHT22;10591;52.532;13.348;2023-04-30T14:55:04;14.44;40.77
20862;DHT22;10591;52.532;13.348;2023-04-30T14:57:36;14.37;41.18
20862;DHT22;10591;52.532;13.348;2023-04-30T15:00:08;14.28;41.40
20862;DHT22;10591;52.532;13.348;2023-04-30T15:02:40;14.46;41.68
20862;DHT22;10591;52.532;13.348;2023-04-30T15:05:10;14.42;40.57
20862;DHT22;10591;52.532;13.348;2023-04-30T15:07:41;14.39;41.08
20862;DHT22;10591;52.532;13.348;2023-04-30T15:10:18;14.56;41.10
20862;DHT22;10591;52.532;13.348;2023-04-30T15:13:25;14.59;41.04
20862;DHT22;10591;52.532;13.348;2023-04-30T15:15:55;14.58;41.17
20862;DHT22;10591;52.532;13.348;2023-04-30T15:18:26;14.52;41.72
20862;DHT22;10591;52.532;13.348;2023-04-30T15:21:01;14.51;42.14
20862;DHT22;10591;52.532;13.348;2023-04-30T15:23:31;14.72;41.19
20862;DHT22;10591;52.532;13.348;2023-04-30T15:26:02;14.54;41.24
20862;DHT22;10591;52.532;13.348;2023-04-30T15:28:33;14.62;41.08
20862;DHT22;10591;52.532;13.348;2023-04-30T15:31:03;14.58;41.50
20862;DHT22;10591;52.532;13.348;2023-04-30T15:33:35;14.60;41.44
20862;DHT22;10591;52.532;13.348;2023-04-30T15:36:08;14.36;41.44
20862;DHT22;10591;52.532;13.348;2023-04-30T15:38:40;14.34;41.41
20862;DHT22;10591;52.532;13.348;2023-04-30T15:41:12;14.30;41.73
20862;DHT22;10591;52.532;13.348;2023-04-30T15:43:43;14.32;41.83
20862;DHT22;10591;52.532;13.348;2023-04-30T15:46:13;14.32;41.60
20862;DHT22;10591;52.532;13.348;2023-04-30T15:48:47;14.24;41.66
20862;DHT22;10591;52.532;13.348;2023-04-30T15:51:18;14.52;42.01
20862;DHT22;10591;52.532;13.348;2023-04-30T15:53:51;14.32;42.12
20862;DHT22;10591;52.532;13.348;2023-04-30T15:56:22;14.41;41.64
20862;DHT22;10591;52.532;13.348;2023-04-30T15:58:55;14.50;41.23
20862;DHT22;10591;52.532;13.348;2023-04-30T16:01:27;14.63;41.77
20862;DHT22;10591;52.532;13.348;2023-04-30T16:03:58;14.46;41.62
20862;DHT22;10591;52.532;13.348;2023-04-30T16:06:29;14.48;41.81
20862;DHT22;10591;52.532;13.348;2023-04-30T16:09:01;14.45;41.61
20862;DHT22;10591;52.532;13.348;2023-04-30T16:11:35;14.53;39.26
20862;DHT22;10591;52.532;13.348;2023-04-30T16:14:06;14.40;40.57